createdAt,value
2023-03-26T00:01:05.558Z,6.26
2023-03-26T00:03:33.483Z,6.26
2023-03-26T00:06:07.389Z,6.26
2023-03-26T00:08:38.206Z,6.25
2023-03-26T00:11:06.558Z,6.22
2023-03-26T00:13:33.360Z,6.21
2023-03-26T00:16:01.200Z,6.16
2023-03-26T00:18:31.424Z,6.17
2023-03-26T00:20:58.843Z,6.13
2023-03-26T00:23:26.859Z,6.13
2023-03-26T00:25:53.577Z,6.09
2023-03-26T00:28:23.080Z,6.09
2023-03-26T00:30:56.741Z,6.03
2023-03-26T00:33:23.787Z,6.05
2023-03-26T00:35:59.096Z,6.00
2023-03-26T00:38:26.570Z,6.02
2023-03-26T00:40:53.614Z,6.05
2023-03-26T00:43:23.586Z,6.00
2023-03-26T00:45:52.430Z,5.97
2023-03-26T00:48:31.318Z,5.99
2023-03-26T00:51:06.523Z,5.99
2023-03-26T00:53:33.322Z,5.98
2023-03-26T00:56:00.255Z,5.98
2023-03-26T00:58:27.406Z,5.98
2023-03-26T01:01:00.242Z,6.02
2023-03-26T01:03:33.600Z,6.03
2023-03-26T01:06:21.355Z,6.06
2023-03-26T01:08:50.418Z,6.04
2023-03-26T01:11:23.823Z,6.04
2023-03-26T01:13:57.147Z,6.08
2023-03-26T01:16:49.695Z,6.05
2023-03-26T01:19:40.606Z,6.02
2023-03-26T01:22:11.774Z,5.97
2023-03-26T01:24:39.136Z,5.93
2023-03-26T01:27:17.946Z,5.94
2023-03-26T01:29:58.542Z,5.94
2023-03-26T01:33:03.369Z,5.96
2023-03-26T01:35:30.323Z,5.97
2023-03-26T01:38:13.455Z,6.00
2023-03-26T01:40:46.678Z,5.91
2023-03-26T01:43:29.645Z,5.96
2023-03-26T01:45:59.649Z,5.92
2023-03-26T01:48:36.659Z,5.75
2023-03-26T01:51:04.464Z,5.62
2023-03-26T01:53:31.782Z,5.59
2023-03-26T01:56:20.046Z,5.52
2023-03-26T01:59:09.652Z,5.54
2023-03-26T02:01:55.668Z,5.44
2023-03-26T02:04:29.864Z,5.33
2023-03-26T02:07:05.684Z,5.27
2023-03-26T02:09:41.941Z,5.27
2023-03-26T02:12:09.737Z,5.28
2023-03-26T02:14:36.274Z,5.24
2023-03-26T02:17:02.722Z,5.13
2023-03-26T02:19:29.757Z,5.15
2023-03-26T02:21:59.745Z,5.16
2023-03-26T02:24:26.127Z,5.18
2023-03-26T02:26:52.789Z,5.16
2023-03-26T02:29:20.457Z,5.21
2023-03-26T02:31:48.345Z,5.24
2023-03-26T02:34:15.988Z,5.24
2023-03-26T02:36:43.057Z,5.25
2023-03-26T02:39:10.874Z,5.18
2023-03-26T02:41:38.541Z,5.13
2023-03-26T02:44:05.675Z,5.12
2023-03-26T02:46:33.541Z,5.16
2023-03-26T02:49:00.033Z,5.20
2023-03-26T02:51:27.297Z,5.17
2023-03-26T02:53:54.660Z,5.18
2023-03-26T02:56:21.121Z,5.17
2023-03-26T02:58:48.244Z,5.24
2023-03-26T03:01:18.342Z,5.23
2023-03-26T03:03:47.180Z,5.32
2023-03-26T03:06:14.108Z,5.25
2023-03-26T03:08:41.526Z,5.21
2023-03-26T03:11:11.059Z,5.16
2023-03-26T03:13:37.483Z,5.11
2023-03-26T03:16:04.118Z,4.89
2023-03-26T03:18:30.636Z,4.88
2023-03-26T03:20:56.959Z,4.86
2023-03-26T03:23:23.323Z,4.75
2023-03-26T03:25:52.459Z,4.72
2023-03-26T03:28:19.257Z,4.66
2023-03-26T03:30:45.729Z,4.71
2023-03-26T03:33:13.053Z,4.66
2023-03-26T03:35:40.043Z,4.61
2023-03-26T03:38:06.364Z,4.55
2023-03-26T03:40:32.806Z,4.51
2023-03-26T03:42:59.100Z,4.46
2023-03-26T03:45:25.880Z,4.51
2023-03-26T03:47:53.060Z,4.47
2023-03-26T03:50:19.885Z,4.52
2023-03-26T03:52:46.253Z,4.53
2023-03-26T03:55:14.013Z,4.52
2023-03-26T03:57:40.472Z,4.52
2023-03-26T04:00:11.624Z,4.50
2023-03-26T04:02:38.516Z,4.55
2023-03-26T04:05:06.037Z,4.51
2023-03-26T04:07:32.886Z,4.55
2023-03-26T04:10:03.888Z,4.48
2023-03-26T04:12:31.260Z,4.47
2023-03-26T04:14:58.553Z,4.51
2023-03-26T04:17:25.904Z,4.51
2023-03-26T04:19:52.852Z,4.61
2023-03-26T04:22:19.587Z,4.56
2023-03-26T04:24:45.969Z,4.57
2023-03-26T04:27:16.640Z,4.59
2023-03-26T04:29:48.050Z,4.56
2023-03-26T04:32:34.102Z,4.53
2023-03-26T04:35:03.934Z,4.59
2023-03-26T04:37:34.407Z,4.56
2023-03-26T04:40:18.256Z,4.50
2023-03-26T04:42:45.956Z,4.51
2023-03-26T04:45:14.764Z,4.54
2023-03-26T04:47:41.180Z,4.49
2023-03-26T04:50:09.427Z,4.44
2023-03-26T04:52:36.441Z,4.40
2023-03-26T04:55:04.388Z,4.45
2023-03-26T04:57:39.883Z,4.46
2023-03-26T05:00:15.819Z,4.32
2023-03-26T05:02:43.131Z,4.38
2023-03-26T05:05:10.222Z,4.31
2023-03-26T05:07:36.764Z,4.27
2023-03-26T05:10:04.759Z,4.20
2023-03-26T05:12:31.082Z,4.23
2023-03-26T05:14:57.577Z,4.25
2023-03-26T05:17:24.765Z,4.18
2023-03-26T05:19:51.921Z,4.24
2023-03-26T05:22:19.121Z,4.22
2023-03-26T05:24:45.488Z,4.15
2023-03-26T05:27:16.921Z,4.13
2023-03-26T05:29:43.489Z,4.15
2023-03-26T05:32:10.800Z,4.20
2023-03-26T05:34:39.225Z,4.19
2023-03-26T05:37:06.733Z,4.15
2023-03-26T05:39:33.490Z,4.17
2023-03-26T05:41:59.836Z,4.10
2023-03-26T05:44:26.222Z,4.15
2023-03-26T05:46:52.553Z,4.22
2023-03-26T05:49:18.848Z,4.22
2023-03-26T05:51:45.130Z,4.30
2023-03-26T05:54:12.083Z,4.24
2023-03-26T05:56:38.417Z,4.32
2023-03-26T05:59:04.784Z,4.24
2023-03-26T06:01:31.081Z,4.30
2023-03-26T06:03:57.461Z,4.30
2023-03-26T06:06:23.785Z,4.31
2023-03-26T06:09:00.890Z,4.36
2023-03-26T06:11:27.527Z,4.40
2023-03-26T06:13:53.836Z,4.36
2023-03-26T06:16:26.081Z,4.33
2023-03-26T06:18:56.671Z,4.47
2023-03-26T06:21:25.377Z,4.47
2023-03-26T06:23:52.191Z,4.34
2023-03-26T06:26:18.927Z,4.39
2023-03-26T06:28:45.285Z,4.40
2023-03-26T06:31:11.880Z,4.40
2023-03-26T06:33:38.488Z,4.43
2023-03-26T06:36:05.231Z,4.53
2023-03-26T06:38:31.634Z,4.56
2023-03-26T06:41:06.037Z,4.41
2023-03-26T06:43:33.785Z,4.26
2023-03-26T06:46:01.670Z,4.32
2023-03-26T06:48:28.319Z,4.38
2023-03-26T06:50:55.375Z,4.38
2023-03-26T06:53:21.889Z,4.33
2023-03-26T06:55:48.497Z,4.47
2023-03-26T06:58:14.813Z,4.38
2023-03-26T07:00:42.152Z,4.61
2023-03-26T07:03:08.682Z,4.46
2023-03-26T07:05:35.238Z,4.56
2023-03-26T07:08:01.598Z,4.56
2023-03-26T07:10:27.917Z,4.59
2023-03-26T07:12:54.295Z,4.70
2023-03-26T07:15:20.885Z,4.69
2023-03-26T07:17:47.194Z,4.65
2023-03-26T07:20:13.539Z,4.58
2023-03-26T07:22:40.196Z,4.55
2023-03-26T07:25:07.509Z,4.60
2023-03-26T07:27:52.265Z,4.66
2023-03-26T07:30:30.538Z,4.69
2023-03-26T07:33:23.223Z,4.67
2023-03-26T07:36:39.340Z,4.56
2023-03-26T07:39:05.614Z,4.54
2023-03-26T07:41:49.588Z,4.52
2023-03-26T07:44:33.581Z,4.67
2023-03-26T07:47:04.617Z,4.46
2023-03-26T07:49:31.492Z,4.56
2023-03-26T07:51:58.584Z,4.54
2023-03-26T07:54:25.351Z,4.41
2023-03-26T07:57:18.187Z,4.49
2023-03-26T08:00:10.025Z,4.61
2023-03-26T08:02:45.866Z,4.60
2023-03-26T08:05:30.250Z,4.49
2023-03-26T08:08:30.371Z,4.52
2023-03-26T08:11:22.845Z,4.63
2023-03-26T08:14:19.126Z,4.47
2023-03-26T08:16:57.174Z,4.72
2023-03-26T08:19:38.583Z,4.75
2023-03-26T08:22:16.887Z,4.86
2023-03-26T08:25:18.015Z,5.02
2023-03-26T08:28:22.120Z,4.95
2023-03-26T08:30:48.636Z,4.80
2023-03-26T08:33:18.137Z,4.84
2023-03-26T08:35:46.141Z,5.17
2023-03-26T08:38:14.659Z,5.24
2023-03-26T08:40:59.526Z,5.19
2023-03-26T08:43:34.911Z,5.19
2023-03-26T08:46:16.544Z,5.37
2023-03-26T08:49:10.850Z,5.36
2023-03-26T08:51:58.568Z,5.31
2023-03-26T08:54:51.297Z,5.19
2023-03-26T08:57:40.785Z,5.32
2023-03-26T09:00:35.567Z,5.01
2023-03-26T09:03:23.793Z,5.25
2023-03-26T09:06:27.251Z,5.24
2023-03-26T09:09:29.534Z,5.33
2023-03-26T09:12:12.511Z,4.97
2023-03-26T09:14:54.626Z,4.82
2023-03-26T09:17:38.868Z,4.80
2023-03-26T09:20:39.747Z,5.13
2023-03-26T09:23:27.930Z,5.51
2023-03-26T09:26:23.771Z,5.53
2023-03-26T09:29:08.476Z,5.71
2023-03-26T09:32:05.887Z,5.87
2023-03-26T09:35:13.099Z,5.83
2023-03-26T09:37:58.860Z,6.01
2023-03-26T09:40:37.830Z,5.67
2023-03-26T09:43:45.357Z,5.83
2023-03-26T09:46:28.908Z,5.97
2023-03-26T09:49:04.419Z,6.44
2023-03-26T09:51:46.960Z,6.68
2023-03-26T09:54:25.501Z,6.03
2023-03-26T09:57:16.207Z,5.86
2023-03-26T10:00:10.491Z,6.08
2023-03-26T10:03:06.061Z,5.79
2023-03-26T10:05:50.378Z,5.71
2023-03-26T10:08:41.221Z,5.89
2023-03-26T10:11:44.650Z,6.08
2023-03-26T10:14:26.097Z,6.30
2023-03-26T10:16:57.812Z,6.39
2023-03-26T10:19:45.919Z,6.90
2023-03-26T10:22:21.238Z,7.03
2023-03-26T10:25:13.546Z,6.55
2023-03-26T10:28:09.696Z,6.96
2023-03-26T10:30:36.338Z,6.86
2023-03-26T10:33:09.803Z,7.15
2023-03-26T10:36:08.986Z,6.86
2023-03-26T10:38:59.686Z,6.30
2023-03-26T10:41:53.271Z,6.19
2023-03-26T10:44:22.574Z,5.89
2023-03-26T10:47:05.555Z,6.18
2023-03-26T10:49:49.729Z,6.21
2023-03-26T10:52:22.414Z,6.28
2023-03-26T10:54:58.510Z,6.18
2023-03-26T10:57:43.413Z,6.44
2023-03-26T11:00:25.041Z,6.59
2023-03-26T11:03:25.508Z,6.93
2023-03-26T11:06:07.277Z,7.04
2023-03-26T11:08:49.687Z,7.34
2023-03-26T11:11:23.686Z,7.71
2023-03-26T11:14:31.710Z,7.92
2023-03-26T11:17:39.626Z,8.08
2023-03-26T11:20:13.836Z,7.72
2023-03-26T11:23:16.429Z,7.62
2023-03-26T11:26:07.447Z,7.20
2023-03-26T11:29:04.084Z,7.37
2023-03-26T11:32:06.087Z,7.39
2023-03-26T11:34:43.200Z,7.81
2023-03-26T11:37:18.745Z,7.70
2023-03-26T11:39:54.496Z,7.57
2023-03-26T11:42:24.514Z,7.59
2023-03-26T11:44:57.603Z,7.60
2023-03-26T11:47:31.485Z,7.45
2023-03-26T11:50:01.816Z,7.35
2023-03-26T11:52:28.450Z,7.12
2023-03-26T11:54:58.439Z,6.99
2023-03-26T11:57:35.096Z,6.93
2023-03-26T12:00:16.734Z,7.22
2023-03-26T12:02:44.845Z,7.36
2023-03-26T12:05:26.681Z,7.59
2023-03-26T12:08:02.053Z,7.51
2023-03-26T12:10:34.282Z,7.40
2023-03-26T12:13:16.289Z,7.57
2023-03-26T12:15:44.124Z,7.50
2023-03-26T12:18:25.241Z,7.52
2023-03-26T12:21:05.329Z,7.48
2023-03-26T12:23:56.122Z,7.42
2023-03-26T12:26:36.488Z,7.67
2023-03-26T12:29:14.920Z,8.01
2023-03-26T12:32:02.738Z,8.25
2023-03-26T12:34:34.698Z,8.55
2023-03-26T12:37:03.443Z,8.54
2023-03-26T12:40:08.705Z,8.19
2023-03-26T12:44:44.084Z,7.80
2023-03-26T12:45:38.182Z,7.87
2023-03-26T12:48:05.375Z,7.86
2023-03-26T12:50:45.657Z,7.56
2023-03-26T12:53:33.577Z,7.44
2023-03-26T12:56:06.270Z,7.40
2023-03-26T12:58:35.624Z,7.48
2023-03-26T13:01:09.040Z,7.96
2023-03-26T13:04:22.561Z,8.08
2023-03-26T13:07:01.812Z,8.28
2023-03-26T13:09:53.265Z,8.59
2023-03-26T13:12:46.107Z,8.48
2023-03-26T13:15:34.359Z,8.25
2023-03-26T13:18:07.543Z,7.92
2023-03-26T13:21:09.494Z,7.91
2023-03-26T13:23:48.072Z,7.92
2023-03-26T13:26:30.285Z,8.09
2023-03-26T13:29:20.353Z,7.95
2023-03-26T13:32:09.509Z,8.08
2023-03-26T13:35:00.044Z,7.88
2023-03-26T13:37:41.012Z,7.99
2023-03-26T13:40:22.211Z,7.79
2023-03-26T13:43:15.460Z,7.93
2023-03-26T13:45:53.082Z,8.04
2023-03-26T13:48:25.833Z,8.42
2023-03-26T13:51:17.681Z,8.49
2023-03-26T13:53:55.981Z,8.51
2023-03-26T13:56:29.363Z,8.77
2023-03-26T13:59:03.439Z,8.57
2023-03-26T14:01:41.017Z,8.38
2023-03-26T14:04:40.448Z,8.08
2023-03-26T14:07:17.915Z,8.34
2023-03-26T14:09:49.516Z,8.34
2023-03-26T14:12:37.620Z,8.38
2023-03-26T14:15:13.985Z,8.49
2023-03-26T14:18:10.902Z,8.11
2023-03-26T14:21:00.484Z,8.26
2023-03-26T14:24:01.852Z,8.08
2023-03-26T14:27:02.447Z,7.92
2023-03-26T14:29:57.597Z,8.00
2023-03-26T14:32:39.481Z,8.15
2023-03-26T14:35:31.498Z,8.04
2023-03-26T14:38:29.572Z,8.06
2023-03-26T14:41:25.348Z,8.52
2023-03-26T14:44:10.393Z,8.50
2023-03-26T14:46:52.030Z,8.80
2023-03-26T14:49:46.297Z,8.78
2023-03-26T14:52:23.057Z,8.94
2023-03-26T14:54:54.945Z,8.82
2023-03-26T14:57:56.707Z,8.77
2023-03-26T15:01:04.482Z,8.44
2023-03-26T15:03:38.564Z,8.32
2023-03-26T15:06:09.896Z,8.37
2023-03-26T15:09:25.852Z,8.21
2023-03-26T15:12:19.086Z,8.07
2023-03-26T15:15:07.022Z,8.18
2023-03-26T15:18:11.704Z,8.31
2023-03-26T15:21:27.001Z,8.34
2023-03-26T15:24:18.390Z,8.30
2023-03-26T15:27:03.638Z,8.26
2023-03-26T15:29:58.157Z,8.17
2023-03-26T15:32:40.318Z,7.80
2023-03-26T15:35:31.594Z,7.59
2023-03-26T15:38:23.697Z,7.71
2023-03-26T15:41:20.037Z,7.72
2023-03-26T15:44:22.528Z,7.86
2023-03-26T15:46:51.257Z,8.16
2023-03-26T15:49:35.867Z,8.23
2023-03-26T15:52:37.658Z,8.03
2023-03-26T15:55:27.769Z,8.13
2023-03-26T15:58:21.276Z,8.22
2023-03-26T16:01:07.716Z,8.05
2023-03-26T16:03:44.466Z,8.12
2023-03-26T16:06:14.058Z,8.05
2023-03-26T16:08:54.553Z,8.13
2023-03-26T16:11:49.554Z,8.02
2023-03-26T16:14:23.801Z,7.89
2023-03-26T16:16:54.080Z,7.82
2023-03-26T16:19:20.661Z,7.80
2023-03-26T16:22:00.737Z,7.76
2023-03-26T16:24:30.668Z,7.57
2023-03-26T16:27:15.532Z,7.57
2023-03-26T16:30:00.285Z,7.49
2023-03-26T16:32:35.293Z,7.46
2023-03-26T16:35:38.273Z,7.41
2023-03-26T16:38:11.515Z,7.39
2023-03-26T16:40:59.342Z,7.42
2023-03-26T16:43:45.296Z,7.49
2023-03-26T16:46:35.066Z,7.54
2023-03-26T16:49:21.759Z,7.72
2023-03-26T16:52:19.302Z,7.55
2023-03-26T16:54:56.886Z,7.44
2023-03-26T16:57:52.408Z,7.36
2023-03-26T17:00:37.819Z,7.33
2023-03-26T17:03:29.109Z,7.18
2023-03-26T17:05:58.145Z,7.15
2023-03-26T17:08:48.280Z,7.17
2023-03-26T17:11:36.061Z,7.31
2023-03-26T17:14:25.473Z,7.20
2023-03-26T17:17:21.351Z,7.11
2023-03-26T17:20:08.428Z,7.04
2023-03-26T17:22:44.911Z,7.01
2023-03-26T17:25:36.155Z,6.97
2023-03-26T17:28:32.072Z,6.93
2023-03-26T17:31:26.209Z,7.05
2023-03-26T17:33:53.430Z,6.93
2023-03-26T17:36:21.375Z,6.88
2023-03-26T17:38:47.742Z,6.82
2023-03-26T17:41:35.437Z,6.74
2023-03-26T17:44:25.596Z,6.81
2023-03-26T17:46:56.873Z,6.78
2023-03-26T17:49:31.072Z,6.71
2023-03-26T17:52:15.976Z,6.60
2023-03-26T17:54:46.846Z,6.62
2023-03-26T17:57:20.365Z,6.57
2023-03-26T17:59:49.006Z,6.59
2023-03-26T18:02:18.508Z,6.50
2023-03-26T18:04:48.343Z,6.40
2023-03-26T18:08:03.958Z,6.39
2023-03-26T18:10:38.774Z,6.43
2023-03-26T18:13:44.457Z,6.39
2023-03-26T18:16:18.357Z,6.58
2023-03-26T18:18:53.829Z,6.59
2023-03-26T18:21:30.310Z,6.46
2023-03-26T18:23:59.513Z,6.33
2023-03-26T18:26:45.436Z,6.33
2023-03-26T18:29:24.156Z,6.37
2023-03-26T18:32:00.535Z,6.43
2023-03-26T18:34:30.739Z,6.32
2023-03-26T18:37:14.488Z,6.24
2023-03-26T18:40:11.871Z,6.16
2023-03-26T18:42:40.126Z,6.16
2023-03-26T18:45:10.622Z,6.22
2023-03-26T18:47:38.309Z,6.18
2023-03-26T18:50:05.268Z,5.96
2023-03-26T18:52:32.117Z,6.11
2023-03-26T18:54:59.548Z,6.10
2023-03-26T18:57:29.005Z,6.16
2023-03-26T19:00:08.632Z,5.99
2023-03-26T19:02:35.771Z,5.89
2023-03-26T19:05:07.752Z,5.88
2023-03-26T19:07:35.767Z,5.82
2023-03-26T19:10:02.166Z,5.76
2023-03-26T19:12:32.769Z,5.65
2023-03-26T19:15:09.728Z,5.56
2023-03-26T19:17:49.391Z,5.65
2023-03-26T19:20:23.505Z,5.59
2023-03-26T19:22:50.725Z,5.48
2023-03-26T19:25:25.404Z,5.42
2023-03-26T19:27:52.350Z,5.40
2023-03-26T19:30:29.200Z,5.36
2023-03-26T19:33:18.323Z,5.35
2023-03-26T19:35:51.465Z,5.30
2023-03-26T19:38:23.063Z,5.27
2023-03-26T19:40:51.842Z,5.27
2023-03-26T19:43:18.900Z,5.29
2023-03-26T19:46:00.237Z,5.36
2023-03-26T19:48:46.151Z,5.27
2023-03-26T19:51:20.403Z,5.07
2023-03-26T19:53:51.452Z,5.02
2023-03-26T19:56:19.605Z,4.93
2023-03-26T19:58:46.199Z,4.90
2023-03-26T20:01:18.905Z,4.92
2023-03-26T20:03:48.032Z,4.88
2023-03-26T20:06:18.179Z,4.89
2023-03-26T20:08:44.850Z,4.86
2023-03-26T20:11:33.264Z,4.73
2023-03-26T20:14:11.318Z,4.49
2023-03-26T20:16:38.202Z,4.22
2023-03-26T20:19:04.562Z,4.16
2023-03-26T20:21:34.503Z,4.05
2023-03-26T20:24:01.350Z,3.96
2023-03-26T20:26:27.749Z,3.87
2023-03-26T20:28:54.145Z,3.81
2023-03-26T20:31:23.332Z,3.80
2023-03-26T20:33:51.713Z,3.77
2023-03-26T20:36:34.375Z,3.65
2023-03-26T20:39:02.396Z,3.63
2023-03-26T20:41:29.048Z,3.59
2023-03-26T20:43:58.474Z,3.54
2023-03-26T20:46:31.408Z,3.50
2023-03-26T20:48:58.795Z,3.36
2023-03-26T20:51:26.531Z,3.28
2023-03-26T20:53:53.218Z,3.20
2023-03-26T20:56:20.488Z,3.13
2023-03-26T20:59:03.698Z,3.04
2023-03-26T21:01:34.818Z,2.95
2023-03-26T21:04:04.031Z,2.88
2023-03-26T21:06:30.395Z,2.86
2023-03-26T21:08:57.080Z,2.82
2023-03-26T21:11:35.733Z,2.77
2023-03-26T21:14:16.976Z,2.68
2023-03-26T21:16:43.789Z,2.63
2023-03-26T21:19:10.604Z,2.59
2023-03-26T21:21:57.414Z,2.56
2023-03-26T21:24:57.199Z,2.49
2023-03-26T21:27:42.604Z,2.44
2023-03-26T21:30:14.578Z,2.44
2023-03-26T21:32:42.100Z,2.36
2023-03-26T21:35:09.451Z,2.30
2023-03-26T21:37:37.485Z,2.30
2023-03-26T21:40:14.003Z,2.19
2023-03-26T21:42:42.156Z,2.18
2023-03-26T21:45:09.889Z,2.12
2023-03-26T21:47:36.579Z,2.01
2023-03-26T21:50:06.253Z,2.02
2023-03-26T21:52:32.949Z,1.96
2023-03-26T21:55:00.760Z,1.91
2023-03-26T21:57:51.855Z,1.88
2023-03-26T22:00:18.742Z,1.83
2023-03-26T22:02:52.527Z,1.78
2023-03-26T22:05:24.589Z,1.85
2023-03-26T22:07:55.971Z,1.76
2023-03-26T22:10:22.799Z,1.69
2023-03-26T22:12:49.980Z,1.69
2023-03-26T22:15:18.117Z,1.62
2023-03-26T22:17:45.641Z,1.60
2023-03-26T22:20:14.687Z,1.53
2023-03-26T22:22:48.463Z,1.43
2023-03-26T22:25:19.079Z,1.42
2023-03-26T22:27:46.366Z,1.42
2023-03-26T22:30:15.515Z,1.36
2023-03-26T22:32:43.346Z,1.41
2023-03-26T22:35:10.344Z,1.36
2023-03-26T22:37:37.279Z,1.29
2023-03-26T22:40:08.718Z,1.25
2023-03-26T22:42:35.964Z,1.25
2023-03-26T22:45:02.899Z,1.26
2023-03-26T22:47:30.401Z,1.19
2023-03-26T22:49:59.822Z,1.17
2023-03-26T22:52:26.977Z,1.06
2023-03-26T22:54:53.476Z,1.07
2023-03-26T22:57:21.560Z,1.04
2023-03-26T22:59:48.516Z,1.01
2023-03-26T23:02:16.472Z,1.03
2023-03-26T23:04:43.953Z,0.93
2023-03-26T23:07:13.216Z,0.97
2023-03-26T23:09:39.571Z,0.94
2023-03-26T23:12:06.519Z,0.93
2023-03-26T23:14:34.064Z,0.97
2023-03-26T23:17:01.370Z,0.93
2023-03-26T23:19:29.842Z,0.88
2023-03-26T23:21:56.540Z,0.84
2023-03-26T23:24:26.282Z,0.83
2023-03-26T23:26:53.073Z,0.76
2023-03-26T23:29:19.623Z,0.77
2023-03-26T23:31:46.357Z,0.77
2023-03-26T23:34:13.409Z,0.75
2023-03-26T23:36:43.153Z,0.80
2023-03-26T23:39:10.713Z,0.75
2023-03-26T23:41:37.302Z,0.73
2023-03-26T23:44:04.283Z,0.68
2023-03-26T23:46:35.717Z,0.70
2023-03-26T23:49:03.676Z,0.64
2023-03-26T23:51:31.176Z,0.58
2023-03-26T23:53:57.855Z,0.56
2023-03-26T23:56:24.893Z,0.57
2023-03-26T23:58:51.993Z,0.56
